createdAt,value
2022-10-11T00:01:59.099Z,10.05
2022-10-11T00:04:46.267Z,18.88
2022-10-11T00:07:33.475Z,15.30
2022-10-11T00:10:20.934Z,18.10
2022-10-11T00:13:08.829Z,14.35
2022-10-11T00:15:56.643Z,16.33
2022-10-11T00:18:43.855Z,22.70
2022-10-11T00:21:31.652Z,20.40
2022-10-11T00:24:18.729Z,17.40
2022-10-11T00:27:05.745Z,17.65
2022-10-11T00:29:53.242Z,20.83
2022-10-11T00:32:40.692Z,24.88
2022-10-11T00:35:27.785Z,15.43
2022-10-11T00:38:15.791Z,18.33
2022-10-11T00:41:03.066Z,19.10
2022-10-11T00:44:12.263Z,19.73
2022-10-11T00:47:10.338Z,20.20
2022-10-11T00:50:01.032Z,27.15
2022-10-11T00:52:55.718Z,24.95
2022-10-11T00:55:53.674Z,24.52
2022-10-11T00:58:42.179Z,22.50
2022-10-11T01:01:29.406Z,21.50
2022-10-11T01:04:16.550Z,21.98
2022-10-11T01:07:03.633Z,18.50
2022-10-11T01:09:50.725Z,22.02
2022-10-11T01:12:47.841Z,17.55
2022-10-11T01:15:56.757Z,18.73
2022-10-11T01:19:04.054Z,23.63
2022-10-11T01:22:06.386Z,17.27
2022-10-11T01:25:02.958Z,24.95
2022-10-11T01:28:17.143Z,27.65
2022-10-11T01:31:17.034Z,24.98
2022-10-11T01:34:25.553Z,29.02
2022-10-11T01:37:23.645Z,25.85
2022-10-11T01:40:39.939Z,31.15
2022-10-11T01:43:28.538Z,38.83
2022-10-11T01:46:16.580Z,32.70
2022-10-11T01:49:04.234Z,45.90
2022-10-11T01:51:54.749Z,38.97
2022-10-11T01:55:10.336Z,40.75
2022-10-11T01:58:14.162Z,33.33
2022-10-11T02:01:20.176Z,29.48
2022-10-11T02:04:33.079Z,31.35
2022-10-11T02:07:40.750Z,32.08
2022-10-11T02:10:34.188Z,30.15
2022-10-11T02:13:32.810Z,28.90
2022-10-11T02:16:23.386Z,34.67
2022-10-11T02:19:14.250Z,29.88
2022-10-11T02:22:05.942Z,28.75
2022-10-11T02:24:57.777Z,33.78
2022-10-11T02:27:46.996Z,34.15
2022-10-11T02:30:35.842Z,38.55
2022-10-11T02:33:31.421Z,30.33
2022-10-11T02:36:43.012Z,32.42
2022-10-11T02:39:59.140Z,34.83
2022-10-11T02:42:51.399Z,34.80
2022-10-11T02:45:46.549Z,35.83
2022-10-11T02:48:35.615Z,30.48
2022-10-11T02:51:38.729Z,35.80
2022-10-11T02:54:27.097Z,36.08
2022-10-11T02:57:14.303Z,32.75
2022-10-11T03:00:01.470Z,35.63
2022-10-11T03:02:48.706Z,43.03
2022-10-11T03:05:40.639Z,34.47
2022-10-11T03:08:28.030Z,39.80
2022-10-11T03:11:15.689Z,40.42
2022-10-11T03:14:02.791Z,38.95
2022-10-11T03:16:51.548Z,40.50
2022-10-11T03:19:38.793Z,44.88
2022-10-11T03:22:25.815Z,48.15
2022-10-11T03:25:12.991Z,45.50
2022-10-11T03:28:00.158Z,46.00
2022-10-11T03:30:48.718Z,43.88
2022-10-11T03:33:35.781Z,41.25
2022-10-11T03:36:22.870Z,44.70
2022-10-11T03:39:10.198Z,50.63
2022-10-11T03:41:57.364Z,41.67
2022-10-11T03:44:44.398Z,43.03
2022-10-11T03:47:31.979Z,53.53
2022-10-11T03:50:19.041Z,44.70
2022-10-11T03:53:07.261Z,48.50
2022-10-11T03:55:55.858Z,54.30
2022-10-11T03:58:43.043Z,42.38
2022-10-11T04:01:30.783Z,54.20
2022-10-11T04:04:17.961Z,53.72
2022-10-11T04:07:05.444Z,57.75
2022-10-11T04:09:52.721Z,51.65
2022-10-11T04:12:39.935Z,52.72
2022-10-11T04:15:27.139Z,55.30
2022-10-11T04:18:14.241Z,50.08
2022-10-11T04:21:01.429Z,49.78
2022-10-11T04:23:48.536Z,44.88
2022-10-11T04:26:35.681Z,52.35
2022-10-11T04:29:23.160Z,51.05
2022-10-11T04:32:10.281Z,47.30
2022-10-11T04:34:57.517Z,44.58
2022-10-11T04:37:44.575Z,46.85
2022-10-11T04:40:32.095Z,47.35
2022-10-11T04:43:19.348Z,57.75
2022-10-11T04:46:08.811Z,43.85
2022-10-11T04:48:56.469Z,39.85
2022-10-11T04:51:43.558Z,45.90
2022-10-11T04:54:30.731Z,46.47
2022-10-11T04:57:17.802Z,46.40
2022-10-11T05:00:05.764Z,47.40
2022-10-11T05:02:53.846Z,40.30
2022-10-11T05:05:40.930Z,45.10
2022-10-11T05:08:29.127Z,47.38
2022-10-11T05:11:17.525Z,47.17
2022-10-11T05:14:05.133Z,48.05
2022-10-11T05:16:52.239Z,52.25
2022-10-11T05:19:39.622Z,51.15
2022-10-11T05:22:26.781Z,50.80
2022-10-11T05:25:13.863Z,62.28
2022-10-11T05:28:01.314Z,50.97
2022-10-11T05:30:48.378Z,51.33
2022-10-11T05:33:35.607Z,54.00
2022-10-11T05:36:22.673Z,58.42
2022-10-11T05:39:09.749Z,52.25
2022-10-11T05:41:57.397Z,49.63
2022-10-11T05:44:44.575Z,58.97
2022-10-11T05:47:31.719Z,53.30
2022-10-11T05:50:23.414Z,56.20
2022-10-11T05:53:11.498Z,51.83
2022-10-11T05:55:59.518Z,64.30
2022-10-11T05:58:46.924Z,50.80
2022-10-11T06:01:34.129Z,49.40
2022-10-11T06:04:21.885Z,54.05
2022-10-11T06:07:08.991Z,54.13
2022-10-11T06:09:56.049Z,52.78
2022-10-11T06:12:43.133Z,55.30
2022-10-11T06:15:30.514Z,52.47
2022-10-11T06:18:17.628Z,46.00
2022-10-11T06:21:05.222Z,52.30
2022-10-11T06:23:56.840Z,59.10
2022-10-11T06:26:49.030Z,47.20
2022-10-11T06:29:36.537Z,51.95
2022-10-11T06:32:23.981Z,61.47
2022-10-11T06:35:11.616Z,59.33
2022-10-11T06:37:58.736Z,57.50
2022-10-11T06:40:45.810Z,53.60
2022-10-11T06:43:32.838Z,59.58
2022-10-11T06:46:21.768Z,52.05
2022-10-11T06:49:08.856Z,56.05
2022-10-11T06:51:55.948Z,64.88
2022-10-11T06:54:45.083Z,54.53
2022-10-11T06:57:32.335Z,50.72
2022-10-11T07:00:19.710Z,43.15
2022-10-11T07:03:08.323Z,43.50
2022-10-11T07:06:07.381Z,39.97
2022-10-11T07:08:55.033Z,34.70
2022-10-11T07:11:42.105Z,32.83
2022-10-11T07:14:29.276Z,31.90
2022-10-11T07:17:16.688Z,33.88
2022-10-11T07:20:04.588Z,35.58
2022-10-11T07:22:51.657Z,27.27
2022-10-11T07:25:38.804Z,29.85
2022-10-11T07:28:27.179Z,27.63
2022-10-11T07:31:17.682Z,28.35
2022-10-11T07:34:04.878Z,26.45
2022-10-11T07:36:51.954Z,19.85
2022-10-11T07:39:39.076Z,22.30
2022-10-11T07:42:26.151Z,24.55
2022-10-11T07:45:13.259Z,22.95
2022-10-11T07:48:00.356Z,24.77
2022-10-11T07:50:47.843Z,24.92
2022-10-11T07:53:41.433Z,24.92
2022-10-11T07:56:29.169Z,23.08
2022-10-11T07:59:16.358Z,24.30
2022-10-11T08:02:03.622Z,20.67
2022-10-11T08:04:50.832Z,22.48
2022-10-11T08:07:38.027Z,22.35
2022-10-11T08:10:26.570Z,23.38
2022-10-11T08:13:14.320Z,20.08
2022-10-11T08:16:08.397Z,21.08
2022-10-11T08:18:56.963Z,17.60
2022-10-11T08:21:44.703Z,19.80
2022-10-11T08:24:37.976Z,20.95
2022-10-11T08:27:25.472Z,16.73
2022-10-11T08:30:13.166Z,17.75
2022-10-11T08:33:02.185Z,18.17
2022-10-11T08:35:53.588Z,20.25
2022-10-11T08:38:41.677Z,25.02
2022-10-11T08:41:40.714Z,19.00
2022-10-11T08:45:05.420Z,22.08
2022-10-11T08:47:45.697Z,18.88
2022-10-11T08:50:33.198Z,22.90
2022-10-11T08:53:51.699Z,24.02
2022-10-11T08:56:40.765Z,18.92
2022-10-11T08:59:39.398Z,24.67
2022-10-11T09:02:56.082Z,27.33
2022-10-11T09:06:00.314Z,23.00
2022-10-11T09:09:12.423Z,28.05
2022-10-11T09:12:18.223Z,28.48
2022-10-11T09:15:23.785Z,23.48
2022-10-11T09:18:22.002Z,23.17
2022-10-11T09:21:27.944Z,23.75
2022-10-11T09:24:45.717Z,25.92
2022-10-11T09:28:01.825Z,19.75
2022-10-11T09:30:51.304Z,24.58
2022-10-11T09:33:43.880Z,17.70
2022-10-11T09:36:52.786Z,23.83
2022-10-11T09:39:57.351Z,24.90
2022-10-11T09:42:44.457Z,24.30
2022-10-11T09:45:31.606Z,23.88
2022-10-11T09:48:40.165Z,25.75
2022-10-11T09:51:27.954Z,22.42
2022-10-11T09:54:15.195Z,22.92
2022-10-11T09:57:02.234Z,22.27
2022-10-11T10:00:20.799Z,19.55
2022-10-11T10:03:28.077Z,21.67
2022-10-11T10:06:27.535Z,22.73
2022-10-11T10:09:26.403Z,23.55
2022-10-11T10:12:18.552Z,19.00
2022-10-11T10:15:06.230Z,26.83
2022-10-11T10:18:37.655Z,22.45
2022-10-11T10:21:31.553Z,22.92
2022-10-11T10:24:27.817Z,23.15
2022-10-11T10:27:17.029Z,24.27
2022-10-11T10:30:10.691Z,18.15
2022-10-11T10:33:05.724Z,23.83
2022-10-11T10:35:58.347Z,26.25
2022-10-11T10:38:56.407Z,21.48
2022-10-11T10:41:43.590Z,23.67
2022-10-11T10:44:30.814Z,20.67
2022-10-11T10:47:53.212Z,18.25
2022-10-11T10:50:58.793Z,17.73
2022-10-11T10:53:58.940Z,22.13
2022-10-11T10:56:56.242Z,21.00
2022-10-11T11:00:05.234Z,21.45
2022-10-11T11:03:04.567Z,20.23
2022-10-11T11:06:01.817Z,20.63
2022-10-11T11:08:55.051Z,19.75
2022-10-11T11:11:54.432Z,20.08
2022-10-11T11:15:10.806Z,15.63
2022-10-11T11:18:16.776Z,20.42
2022-10-11T11:21:08.207Z,18.42
2022-10-11T11:24:04.534Z,20.65
2022-10-11T11:27:06.042Z,18.85
2022-10-11T11:30:02.985Z,19.00
2022-10-11T11:33:09.708Z,16.90
2022-10-11T11:36:01.550Z,16.98
2022-10-11T11:39:01.675Z,25.02
2022-10-11T11:42:03.291Z,18.02
2022-10-11T11:44:51.475Z,20.13
2022-10-11T11:47:42.433Z,17.70
2022-10-11T11:53:35.549Z,17.65
2022-10-11T11:57:01.557Z,22.13
2022-10-11T12:00:07.067Z,19.02
2022-10-11T12:03:09.465Z,22.42
2022-10-11T12:06:14.880Z,17.52
2022-10-11T12:09:06.945Z,20.27
2022-10-11T12:11:58.225Z,21.45
2022-10-11T12:15:02.461Z,22.70
2022-10-11T12:17:58.458Z,18.33
2022-10-11T12:20:45.686Z,18.48
2022-10-11T12:23:41.239Z,19.17
2022-10-11T12:26:28.230Z,21.17
2022-10-11T12:29:20.149Z,20.65
2022-10-11T12:32:27.144Z,19.27
2022-10-11T12:35:33.429Z,19.60
2022-10-11T12:38:33.932Z,23.00
2022-10-11T12:41:49.528Z,20.38
2022-10-11T12:44:36.619Z,19.55
2022-10-11T12:47:39.115Z,17.15
2022-10-11T12:50:48.432Z,20.77
2022-10-11T12:54:26.024Z,22.23
2022-10-11T12:57:45.961Z,28.85
2022-10-11T13:00:41.514Z,19.58
2022-10-11T13:03:36.261Z,18.05
2022-10-11T13:06:33.611Z,21.77
2022-10-11T13:09:29.837Z,19.58
2022-10-11T13:12:23.326Z,18.67
2022-10-11T13:15:17.048Z,19.83
2022-10-11T13:18:04.189Z,18.88
2022-10-11T13:20:51.308Z,19.75
2022-10-11T13:23:39.025Z,17.60
2022-10-11T13:26:29.069Z,18.33
2022-10-11T13:29:30.589Z,17.38
2022-10-11T13:32:24.334Z,18.08
2022-10-11T13:35:41.927Z,19.30
2022-10-11T13:38:28.959Z,24.83
2022-10-11T13:41:16.181Z,15.95
2022-10-11T13:44:04.416Z,22.63
2022-10-11T13:46:52.547Z,18.27
2022-10-11T13:49:43.877Z,19.15
2022-10-11T13:52:30.971Z,21.52
2022-10-11T13:55:49.786Z,18.60
2022-10-11T13:58:44.342Z,16.02
2022-10-11T14:01:40.561Z,24.40
2022-10-11T14:04:29.995Z,21.98
2022-10-11T14:07:27.287Z,19.98
2022-10-11T14:10:20.879Z,15.63
2022-10-11T14:13:29.009Z,21.45
2022-10-11T14:16:15.999Z,14.55
2022-10-11T14:19:10.553Z,16.75
2022-10-11T14:21:57.670Z,17.17
2022-10-11T14:24:49.007Z,21.33
2022-10-11T14:27:37.314Z,20.10
2022-10-11T14:30:27.445Z,20.70
2022-10-11T14:33:14.791Z,18.23
2022-10-11T14:36:02.120Z,22.23
2022-10-11T14:38:51.026Z,17.23
2022-10-11T14:41:38.179Z,14.70
2022-10-11T14:44:25.909Z,21.65
2022-10-11T14:47:15.933Z,15.63
2022-10-11T14:50:36.505Z,19.10
2022-10-11T14:53:23.685Z,18.48
2022-10-11T14:56:10.766Z,20.58
2022-10-11T14:58:58.092Z,19.05
2022-10-11T15:01:46.722Z,26.77
2022-10-11T15:04:34.100Z,25.58
2022-10-11T15:07:21.196Z,17.45
2022-10-11T15:10:25.525Z,25.33
2022-10-11T15:13:12.599Z,19.88
2022-10-11T15:16:00.268Z,17.02
2022-10-11T15:18:51.959Z,26.25
2022-10-11T15:21:39.189Z,22.85
2022-10-11T15:24:27.883Z,23.17
2022-10-11T15:27:17.190Z,23.30
2022-10-11T15:30:13.718Z,23.92
2022-10-11T15:33:01.075Z,16.08
2022-10-11T15:35:48.263Z,23.13
2022-10-11T15:38:35.341Z,22.95
2022-10-11T15:41:23.867Z,21.98
2022-10-11T15:44:11.105Z,25.05
2022-10-11T15:46:58.336Z,21.67
2022-10-11T15:49:45.912Z,19.10
2022-10-11T15:52:33.107Z,24.23
2022-10-11T15:55:20.191Z,21.10
2022-10-11T15:58:13.504Z,23.83
2022-10-11T16:01:05.934Z,27.15
2022-10-11T16:03:53.371Z,26.02
2022-10-11T16:06:41.348Z,23.45
2022-10-11T16:09:28.418Z,19.38
2022-10-11T16:12:15.506Z,21.15
2022-10-11T16:15:02.869Z,24.42
2022-10-11T16:17:50.010Z,28.42
2022-10-11T16:20:41.774Z,25.75
2022-10-11T16:23:29.089Z,28.02
2022-10-11T16:26:16.558Z,17.15
2022-10-11T16:29:03.748Z,22.73
2022-10-11T16:31:51.012Z,22.83
2022-10-11T16:34:38.115Z,29.35
2022-10-11T16:37:25.296Z,24.17
2022-10-11T16:40:19.567Z,27.45
2022-10-11T16:43:08.055Z,25.02
2022-10-11T16:45:58.338Z,25.08
2022-10-11T16:48:45.671Z,27.87
2022-10-11T16:51:33.230Z,32.55
2022-10-11T16:54:21.437Z,29.35
2022-10-11T16:57:09.320Z,33.35
2022-10-11T16:59:56.388Z,32.47
2022-10-11T17:02:43.571Z,26.02
2022-10-11T17:05:30.670Z,30.95
2022-10-11T17:08:17.823Z,29.27
2022-10-11T17:11:06.270Z,35.10
2022-10-11T17:13:53.576Z,30.10
2022-10-11T17:16:40.844Z,35.45
2022-10-11T17:19:27.900Z,33.42
2022-10-11T17:22:19.764Z,41.13
2022-10-11T17:25:07.311Z,44.70
2022-10-11T17:27:57.906Z,49.03
2022-10-11T17:30:54.186Z,50.80
2022-10-11T17:33:41.444Z,57.47
2022-10-11T17:36:31.992Z,57.17
2022-10-11T17:39:22.323Z,50.35
2022-10-11T17:42:09.466Z,59.23
2022-10-11T17:44:56.589Z,47.88
2022-10-11T17:47:43.846Z,47.13
2022-10-11T17:50:32.106Z,52.58
2022-10-11T17:53:19.664Z,42.97
2022-10-11T17:56:09.026Z,49.72
2022-10-11T17:58:57.546Z,48.55
2022-10-11T18:01:44.800Z,63.40
2022-10-11T18:04:31.895Z,59.80
2022-10-11T18:07:18.930Z,66.13
2022-10-11T18:10:06.602Z,61.30
2022-10-11T18:12:54.821Z,68.25
2022-10-11T18:15:42.000Z,69.95
2022-10-11T18:18:29.063Z,66.57
2022-10-11T18:21:18.347Z,63.83
2022-10-11T18:24:15.525Z,59.47
2022-10-11T18:27:03.019Z,65.32
2022-10-11T18:29:50.119Z,64.45
2022-10-11T18:32:37.510Z,66.15
2022-10-11T18:35:24.609Z,58.25
2022-10-11T18:38:11.717Z,61.63
2022-10-11T18:41:07.474Z,54.80
2022-10-11T18:43:56.839Z,49.35
2022-10-11T18:46:44.673Z,40.65
2022-10-11T18:49:31.815Z,38.63
2022-10-11T18:52:18.945Z,34.47
2022-10-11T18:55:06.596Z,36.03
2022-10-11T18:57:53.829Z,39.47
2022-10-11T19:00:41.592Z,30.17
2022-10-11T19:03:34.151Z,35.17
2022-10-11T19:06:25.691Z,42.00
2022-10-11T19:09:18.922Z,32.00
2022-10-11T19:12:06.187Z,40.63
2022-10-11T19:14:54.679Z,36.30
2022-10-11T19:17:42.017Z,29.15
2022-10-11T19:20:29.164Z,28.60
2022-10-11T19:23:16.470Z,30.52
2022-10-11T19:26:03.977Z,33.28
2022-10-11T19:29:15.247Z,26.08
2022-10-11T19:32:03.840Z,26.55
2022-10-11T19:34:51.114Z,29.02
2022-10-11T19:37:38.194Z,23.00
2022-10-11T19:40:27.210Z,27.83
2022-10-11T19:43:16.648Z,27.45
2022-10-11T19:46:05.934Z,28.05
2022-10-11T19:48:53.290Z,28.10
2022-10-11T19:51:40.385Z,31.80
2022-10-11T19:54:27.724Z,27.73
2022-10-11T19:57:14.858Z,31.23
2022-10-11T20:00:02.070Z,27.08
2022-10-11T20:02:51.639Z,32.78
2022-10-11T20:05:38.850Z,32.60
2022-10-11T20:08:27.055Z,33.13
2022-10-11T20:11:15.582Z,39.15
2022-10-11T20:14:02.999Z,31.90
2022-10-11T20:16:50.961Z,34.88
2022-10-11T20:19:38.118Z,34.58
2022-10-11T20:22:25.203Z,28.73
2022-10-11T20:25:12.293Z,34.67
2022-10-11T20:27:59.480Z,33.38
2022-10-11T20:30:46.601Z,38.42
2022-10-11T20:33:33.721Z,44.08
2022-10-11T20:36:22.554Z,52.92
2022-10-11T20:39:09.887Z,70.88
2022-10-11T20:41:56.962Z,49.65
2022-10-11T20:44:44.515Z,49.50
2022-10-11T20:47:32.019Z,36.08
2022-10-11T20:50:22.927Z,37.13
2022-10-11T20:53:14.216Z,41.75
2022-10-11T20:56:04.751Z,42.05
2022-10-11T20:58:53.561Z,34.67
2022-10-11T21:01:41.208Z,41.58
2022-10-11T21:04:28.479Z,29.85
2022-10-11T21:07:15.830Z,29.25
2022-10-11T21:10:03.283Z,28.88
2022-10-11T21:12:50.344Z,30.65
2022-10-11T21:15:37.381Z,26.08
2022-10-11T21:18:24.430Z,28.38
2022-10-11T21:21:15.442Z,27.35
2022-10-11T21:24:03.160Z,23.33
2022-10-11T21:26:50.299Z,28.10
2022-10-11T21:29:37.342Z,22.48
2022-10-11T21:32:24.593Z,20.65
2022-10-11T21:35:11.744Z,20.73
2022-10-11T21:37:59.388Z,27.17
2022-10-11T21:40:46.943Z,24.65
2022-10-11T21:43:35.674Z,30.73
2022-10-11T21:46:47.936Z,25.67
2022-10-11T21:49:36.337Z,25.98
2022-10-11T21:52:23.371Z,23.27
2022-10-11T21:55:10.640Z,24.90
2022-10-11T21:57:58.112Z,24.77
2022-10-11T22:00:46.906Z,24.30
2022-10-11T22:03:34.202Z,23.58
2022-10-11T22:06:21.659Z,22.08
2022-10-11T22:09:08.817Z,27.00
2022-10-11T22:11:56.885Z,26.13
2022-10-11T22:14:44.025Z,23.48
2022-10-11T22:17:31.069Z,25.13
2022-10-11T22:20:18.165Z,23.65
2022-10-11T22:23:05.419Z,24.52
2022-10-11T22:25:52.489Z,27.45
2022-10-11T22:28:40.335Z,24.60
2022-10-11T22:31:28.411Z,30.55
2022-10-11T22:34:15.561Z,22.80
2022-10-11T22:37:02.671Z,25.90
2022-10-11T22:39:49.737Z,25.85
2022-10-11T22:42:36.960Z,23.48
2022-10-11T22:45:24.134Z,23.13
2022-10-11T22:48:11.933Z,25.10
2022-10-11T22:50:59.212Z,31.05
2022-10-11T22:53:46.446Z,25.60
2022-10-11T22:56:33.603Z,27.77
2022-10-11T22:59:20.811Z,28.27
2022-10-11T23:02:08.049Z,28.45
2022-10-11T23:04:55.103Z,24.75
2022-10-11T23:07:42.177Z,26.95
2022-10-11T23:10:31.150Z,23.85
2022-10-11T23:13:18.660Z,27.63
2022-10-11T23:16:07.795Z,28.45
2022-10-11T23:18:55.246Z,29.58
2022-10-11T23:21:42.336Z,31.35
2022-10-11T23:24:29.575Z,29.23
2022-10-11T23:27:16.754Z,31.48
2022-10-11T23:30:05.053Z,31.58
2022-10-11T23:32:52.117Z,29.88
2022-10-11T23:35:39.339Z,28.60
2022-10-11T23:38:26.407Z,34.25
2022-10-11T23:41:13.480Z,27.95
2022-10-11T23:44:00.568Z,30.98
2022-10-11T23:46:47.716Z,29.85
2022-10-11T23:49:35.459Z,27.38
2022-10-11T23:52:22.760Z,28.27
2022-10-11T23:55:10.022Z,28.00
2022-10-11T23:57:57.138Z,30.98
